sensor_id;sensor_type;location;lat;lon;timestamp;pressure;altitude;pressure_sealevel;temperature;humidity
49178;BME280;35016;55.674;37.468;2023-06-10T00:01:16;99441.25;;;12.59;45.17
49178;BME280;35016;55.674;37.468;2023-06-10T00:03:44;99429.56;;;12.54;44.71
49178;BME280;35016;55.674;37.468;2023-06-10T00:06:12;99445.91;;;12.49;45.01
49178;BME280;35016;55.674;37.468;2023-06-10T00:08:39;99440.72;;;12.42;44.69
49178;BME280;35016;55.674;37.468;2023-06-10T00:11:06;99439.91;;;12.36;44.89
49178;BME280;35016;55.674;37.468;2023-06-10T00:13:33;99446.97;;;12.32;45.26
49178;BME280;35016;55.674;37.468;2023-06-10T00:16:00;99446.72;;;12.29;45.06
49178;BME280;35016;55.674;37.468;2023-06-10T00:18:27;99444.00;;;12.24;45.31
49178;BME280;35016;55.674;37.468;2023-06-10T00:20:54;99443.72;;;12.20;44.90
49178;BME280;35016;55.674;37.468;2023-06-10T00:23:21;99462.75;;;12.15;45.63
49178;BME280;35016;55.674;37.468;2023-06-10T00:25:49;99469.53;;;12.13;45.42
49178;BME280;35016;55.674;37.468;2023-06-10T00:28:16;99468.44;;;12.08;45.39
49178;BME280;35016;55.674;37.468;2023-06-10T00:30:43;99468.97;;;12.05;45.37
49178;BME280;35016;55.674;37.468;2023-06-10T00:33:09;99473.88;;;12.03;45.69
49178;BME280;35016;55.674;37.468;2023-06-10T00:35:36;99472.25;;;12.02;45.73
49178;BME280;35016;55.674;37.468;2023-06-10T00:38:03;99483.13;;;12.02;45.25
49178;BME280;35016;55.674;37.468;2023-06-10T00:40:31;99487.72;;;12.02;45.38
49178;BME280;35016;55.674;37.468;2023-06-10T00:42:58;99489.63;;;12.01;45.73
49178;BME280;35016;55.674;37.468;2023-06-10T00:45:24;99481.47;;;12.01;45.70
49178;BME280;35016;55.674;37.468;2023-06-10T00:47:51;99485.00;;;12.02;45.14
49178;BME280;35016;55.674;37.468;2023-06-10T00:50:19;99496.69;;;12.02;45.43
49178;BME280;35016;55.674;37.468;2023-06-10T00:52:46;99497.53;;;12.03;45.48
49178;BME280;35016;55.674;37.468;2023-06-10T00:55:16;99501.88;;;12.04;45.49
49178;BME280;35016;55.674;37.468;2023-06-10T00:57:44;99508.94;;;12.05;45.81
49178;BME280;35016;55.674;37.468;2023-06-10T01:00:12;99507.31;;;12.09;45.78
49178;BME280;35016;55.674;37.468;2023-06-10T01:02:40;99506.75;;;12.12;45.44
49178;BME280;35016;55.674;37.468;2023-06-10T01:05:07;99509.78;;;12.16;45.55
49178;BME280;35016;55.674;37.468;2023-06-10T01:10:16;99511.97;;;12.24;45.52
49178;BME280;35016;55.674;37.468;2023-06-10T01:15:26;99504.91;;;12.28;45.97
49178;BME280;35016;55.674;37.468;2023-06-10T01:17:54;99518.78;;;12.26;46.13
49178;BME280;35016;55.674;37.468;2023-06-10T01:20:22;99507.34;;;12.24;46.06
49178;BME280;35016;55.674;37.468;2023-06-10T01:22:49;99520.41;;;12.22;45.86
49178;BME280;35016;55.674;37.468;2023-06-10T01:25:18;99529.63;;;12.21;46.28
49178;BME280;35016;55.674;37.468;2023-06-10T01:27:45;99528.56;;;12.22;46.31
49178;BME280;35016;55.674;37.468;2023-06-10T01:30:14;99531.28;;;12.22;46.45
49178;BME280;35016;55.674;37.468;2023-06-10T01:32:45;99534.00;;;12.22;46.08
49178;BME280;35016;55.674;37.468;2023-06-10T01:35:15;99520.94;;;12.24;46.25
49178;BME280;35016;55.674;37.468;2023-06-10T01:37:46;99534.25;;;12.26;45.87
49178;BME280;35016;55.674;37.468;2023-06-10T01:40:13;99532.38;;;12.26;46.32
49178;BME280;35016;55.674;37.468;2023-06-10T01:42:40;99527.19;;;12.25;46.08
49178;BME280;35016;55.674;37.468;2023-06-10T01:45:08;99536.44;;;12.24;46.03
49178;BME280;35016;55.674;37.468;2023-06-10T01:47:35;99544.31;;;12.25;46.12
49178;BME280;35016;55.674;37.468;2023-06-10T01:50:02;99543.78;;;12.23;46.27
49178;BME280;35016;55.674;37.468;2023-06-10T01:52:29;99548.41;;;12.23;46.45
49178;BME280;35016;55.674;37.468;2023-06-10T01:54:56;99542.97;;;12.23;46.31
49178;BME280;35016;55.674;37.468;2023-06-10T01:57:23;99539.41;;;12.17;46.44
49178;BME280;35016;55.674;37.468;2023-06-10T01:59:50;99538.88;;;12.15;46.13
49178;BME280;35016;55.674;37.468;2023-06-10T02:02:17;99552.72;;;12.14;46.39
49178;BME280;35016;55.674;37.468;2023-06-10T02:04:44;99554.88;;;12.12;46.53
49178;BME280;35016;55.674;37.468;2023-06-10T02:07:11;99555.69;;;12.07;46.57
49178;BME280;35016;55.674;37.468;2023-06-10T02:09:38;99558.66;;;12.00;46.86
49178;BME280;35016;55.674;37.468;2023-06-10T02:12:06;99558.13;;;11.98;46.89
49178;BME280;35016;55.674;37.468;2023-06-10T02:14:34;99558.13;;;11.98;46.49
49178;BME280;35016;55.674;37.468;2023-06-10T02:17:01;99565.72;;;11.96;46.86
49178;BME280;35016;55.674;37.468;2023-06-10T02:19:28;99560.56;;;11.95;47.08
49178;BME280;35016;55.674;37.468;2023-06-10T02:21:55;99572.25;;;11.95;47.09
49178;BME280;35016;55.674;37.468;2023-06-10T02:24:22;99570.88;;;11.98;46.58
49178;BME280;35016;55.674;37.468;2023-06-10T02:26:49;99570.88;;;11.98;46.70
49178;BME280;35016;55.674;37.468;2023-06-10T02:29:18;99569.00;;;11.98;46.62
49178;BME280;35016;55.674;37.468;2023-06-10T02:31:45;99576.31;;;11.98;46.95
49178;BME280;35016;55.674;37.468;2023-06-10T02:34:12;99576.06;;;11.99;47.06
49178;BME280;35016;55.674;37.468;2023-06-10T02:36:39;99577.69;;;12.00;46.52
49178;BME280;35016;55.674;37.468;2023-06-10T02:39:07;99575.78;;;12.01;46.79
49178;BME280;35016;55.674;37.468;2023-06-10T02:41:34;99578.25;;;12.02;46.47
49178;BME280;35016;55.674;37.468;2023-06-10T02:44:02;99579.31;;;12.01;47.15
49178;BME280;35016;55.674;37.468;2023-06-10T02:46:29;99585.31;;;12.03;46.52
49178;BME280;35016;55.674;37.468;2023-06-10T02:48:56;99578.53;;;12.06;46.73
49178;BME280;35016;55.674;37.468;2023-06-10T02:51:24;99586.66;;;12.06;47.20
49178;BME280;35016;55.674;37.468;2023-06-10T02:53:57;99583.94;;;12.06;46.67
49178;BME280;35016;55.674;37.468;2023-06-10T02:56:24;99583.41;;;12.04;46.92
49178;BME280;35016;55.674;37.468;2023-06-10T02:58:53;99591.03;;;12.07;46.94
49178;BME280;35016;55.674;37.468;2023-06-10T03:01:21;99587.78;;;12.10;46.96
49178;BME280;35016;55.674;37.468;2023-06-10T03:04:00;99586.16;;;12.14;47.27
49178;BME280;35016;55.674;37.468;2023-06-10T03:06:27;99579.94;;;12.19;46.60
49178;BME280;35016;55.674;37.468;2023-06-10T03:09:03;99598.69;;;12.20;46.61
49178;BME280;35016;55.674;37.468;2023-06-10T03:11:39;99593.00;;;12.22;46.85
49178;BME280;35016;55.674;37.468;2023-06-10T03:14:06;99600.06;;;12.23;47.12
49178;BME280;35016;55.674;37.468;2023-06-10T03:16:33;99603.31;;;12.25;47.28
49178;BME280;35016;55.674;37.468;2023-06-10T03:19:00;99601.97;;;12.27;46.88
49178;BME280;35016;55.674;37.468;2023-06-10T03:21:28;99593.81;;;12.32;46.69
49178;BME280;35016;55.674;37.468;2023-06-10T03:23:56;99587.84;;;12.40;46.92
49178;BME280;35016;55.674;37.468;2023-06-10T03:26:23;99596.31;;;12.44;46.85
49178;BME280;35016;55.674;37.468;2023-06-10T03:28:50;99599.03;;;12.44;47.12
49178;BME280;35016;55.674;37.468;2023-06-10T03:31:18;99600.66;;;12.45;46.74
49178;BME280;35016;55.674;37.468;2023-06-10T03:33:46;99597.41;;;12.48;47.04
49178;BME280;35016;55.674;37.468;2023-06-10T03:36:13;99601.75;;;12.54;46.63
49178;BME280;35016;55.674;37.468;2023-06-10T03:38:41;99606.94;;;12.61;46.88
49178;BME280;35016;55.674;37.468;2023-06-10T03:41:08;99599.59;;;12.61;46.55
49178;BME280;35016;55.674;37.468;2023-06-10T03:43:38;99608.84;;;12.65;46.71
49178;BME280;35016;55.674;37.468;2023-06-10T03:46:07;99612.66;;;12.64;46.65
49178;BME280;35016;55.674;37.468;2023-06-10T03:48:37;99609.94;;;12.64;46.52
49178;BME280;35016;55.674;37.468;2023-06-10T03:51:05;99614.00;;;12.67;46.61
49178;BME280;35016;55.674;37.468;2023-06-10T03:53:33;99610.75;;;12.70;46.71
49178;BME280;35016;55.674;37.468;2023-06-10T03:56:00;99608.06;;;12.75;46.67
49178;BME280;35016;55.674;37.468;2023-06-10T03:58:29;99606.69;;;12.78;46.48
49178;BME280;35016;55.674;37.468;2023-06-10T04:00:56;99604.78;;;12.78;46.50
49178;BME280;35016;55.674;37.468;2023-06-10T04:03:31;99611.03;;;12.79;46.53
49178;BME280;35016;55.674;37.468;2023-06-10T04:05:58;99623.28;;;12.81;46.73
49178;BME280;35016;55.674;37.468;2023-06-10T04:08:26;99617.56;;;12.83;46.58
49178;BME280;35016;55.674;37.468;2023-06-10T04:10:53;99630.09;;;12.84;46.61
49178;BME280;35016;55.674;37.468;2023-06-10T04:13:20;99627.09;;;12.85;46.78
49178;BME280;35016;55.674;37.468;2023-06-10T04:15:52;99620.03;;;12.84;46.44
49178;BME280;35016;55.674;37.468;2023-06-10T04:18:21;99623.56;;;12.90;46.60
49178;BME280;35016;55.674;37.468;2023-06-10T04:20:54;99626.28;;;12.95;46.61
49178;BME280;35016;55.674;37.468;2023-06-10T04:23:22;99622.50;;;13.01;46.65
49178;BME280;35016;55.674;37.468;2023-06-10T04:25:50;99633.09;;;13.08;46.62
49178;BME280;35016;55.674;37.468;2023-06-10T04:28:17;99623.84;;;13.14;46.51
49178;BME280;35016;55.674;37.468;2023-06-10T04:30:45;99629.31;;;13.19;46.35
49178;BME280;35016;55.674;37.468;2023-06-10T04:33:13;99628.22;;;13.25;46.50
49178;BME280;35016;55.674;37.468;2023-06-10T04:35:40;99629.03;;;13.30;46.53
49178;BME280;35016;55.674;37.468;2023-06-10T04:38:09;99634.75;;;13.39;46.41
49178;BME280;35016;55.674;37.468;2023-06-10T04:40:36;99646.72;;;13.48;46.18
49178;BME280;35016;55.674;37.468;2023-06-10T04:43:03;99643.69;;;13.55;46.18
49178;BME280;35016;55.674;37.468;2023-06-10T04:45:32;99644.81;;;13.59;46.22
49178;BME280;35016;55.674;37.468;2023-06-10T04:47:59;99642.63;;;13.61;46.03
49178;BME280;35016;55.674;37.468;2023-06-10T04:50:26;99643.97;;;13.63;46.08
49178;BME280;35016;55.674;37.468;2023-06-10T04:52:53;99643.41;;;13.67;46.08
49178;BME280;35016;55.674;37.468;2023-06-10T04:55:24;99640.97;;;13.65;46.14
49178;BME280;35016;55.674;37.468;2023-06-10T04:57:51;99651.31;;;13.68;46.15
49178;BME280;35016;55.674;37.468;2023-06-10T05:00:18;99654.88;;;13.69;45.99
49178;BME280;35016;55.674;37.468;2023-06-10T05:02:45;99652.94;;;13.69;46.14
49178;BME280;35016;55.674;37.468;2023-06-10T05:05:16;99652.94;;;13.74;46.00
49178;BME280;35016;55.674;37.468;2023-06-10T05:07:43;99661.63;;;13.81;46.08
49178;BME280;35016;55.674;37.468;2023-06-10T05:10:11;99659.19;;;13.90;45.69
49178;BME280;35016;55.674;37.468;2023-06-10T05:12:40;99662.16;;;13.93;45.97
49178;BME280;35016;55.674;37.468;2023-06-10T05:15:07;99657.81;;;13.92;46.06
49178;BME280;35016;55.674;37.468;2023-06-10T05:17:35;99655.91;;;13.93;45.72
49178;BME280;35016;55.674;37.468;2023-06-10T05:20:02;99658.63;;;13.93;45.86
49178;BME280;35016;55.674;37.468;2023-06-10T05:22:30;99657.50;;;13.99;46.10
49178;BME280;35016;55.674;37.468;2023-06-10T05:24:57;99654.19;;;14.07;45.85
49178;BME280;35016;55.674;37.468;2023-06-10T05:27:24;99659.63;;;14.17;45.72
49178;BME280;35016;55.674;37.468;2023-06-10T05:29:51;99665.31;;;14.26;45.72
49178;BME280;35016;55.674;37.468;2023-06-10T05:32:18;99671.84;;;14.30;45.61
49178;BME280;35016;55.674;37.468;2023-06-10T05:34:45;99663.38;;;14.32;45.60
49178;BME280;35016;55.674;37.468;2023-06-10T05:37:12;99669.66;;;14.32;45.54
49178;BME280;35016;55.674;37.468;2023-06-10T05:39:39;99673.47;;;14.31;45.56
49178;BME280;35016;55.674;37.468;2023-06-10T05:42:06;99674.53;;;14.35;45.50
49178;BME280;35016;55.674;37.468;2023-06-10T05:44:34;99674.50;;;14.40;45.58
49178;BME280;35016;55.674;37.468;2023-06-10T05:47:01;99675.31;;;14.41;45.43
49178;BME280;35016;55.674;37.468;2023-06-10T05:49:28;99678.06;;;14.41;45.51
49178;BME280;35016;55.674;37.468;2023-06-10T05:51:55;99669.34;;;14.44;45.34
49178;BME280;35016;55.674;37.468;2023-06-10T05:54:25;99677.00;;;14.47;45.36
49178;BME280;35016;55.674;37.468;2023-06-10T05:56:55;99679.44;;;14.48;45.45
49178;BME280;35016;55.674;37.468;2023-06-10T05:59:22;99676.94;;;14.57;45.20
49178;BME280;35016;55.674;37.468;2023-06-10T06:01:49;99681.75;;;14.70;45.14
49178;BME280;35016;55.674;37.468;2023-06-10T06:04:19;99681.47;;;14.77;45.15
49178;BME280;35016;55.674;37.468;2023-06-10T06:06:46;99674.63;;;14.79;45.03
49178;BME280;35016;55.674;37.468;2023-06-10T06:09:13;99693.69;;;14.84;44.89
49178;BME280;35016;55.674;37.468;2023-06-10T06:11:40;99688.72;;;14.92;44.94
49178;BME280;35016;55.674;37.468;2023-06-10T06:14:07;99680.75;;;15.00;45.09
49178;BME280;35016;55.674;37.468;2023-06-10T06:16:34;99678.47;;;15.12;45.05
49178;BME280;35016;55.674;37.468;2023-06-10T06:19:01;99683.00;;;15.27;44.64
49178;BME280;35016;55.674;37.468;2023-06-10T06:21:28;99692.47;;;15.40;44.84
49178;BME280;35016;55.674;37.468;2023-06-10T06:23:55;99698.75;;;15.40;44.70
49178;BME280;35016;55.674;37.468;2023-06-10T06:26:22;99700.19;;;15.28;44.78
49178;BME280;35016;55.674;37.468;2023-06-10T06:28:49;99691.81;;;15.19;44.96
49178;BME280;35016;55.674;37.468;2023-06-10T06:31:16;99691.03;;;15.13;44.99
49178;BME280;35016;55.674;37.468;2023-06-10T06:33:43;99686.19;;;15.05;45.08
49178;BME280;35016;55.674;37.468;2023-06-10T06:36:10;99699.84;;;15.00;45.36
49178;BME280;35016;55.674;37.468;2023-06-10T06:38:41;99696.34;;;14.95;45.11
49178;BME280;35016;55.674;37.468;2023-06-10T06:41:08;99700.97;;;14.99;45.29
49178;BME280;35016;55.674;37.468;2023-06-10T06:43:35;99696.78;;;15.12;45.14
49178;BME280;35016;55.674;37.468;2023-06-10T06:46:37;99701.81;;;15.34;44.99
49178;BME280;35016;55.674;37.468;2023-06-10T06:49:04;99720.31;;;15.42;44.69
49178;BME280;35016;55.674;37.468;2023-06-10T06:51:31;99717.94;;;15.35;44.78
49178;BME280;35016;55.674;37.468;2023-06-10T06:53:59;99716.94;;;15.21;45.05
49178;BME280;35016;55.674;37.468;2023-06-10T06:56:26;99722.38;;;15.21;44.87
49178;BME280;35016;55.674;37.468;2023-06-10T06:58:54;99714.41;;;15.30;45.22
49178;BME280;35016;55.674;37.468;2023-06-10T07:01:23;99715.72;;;15.37;44.77
49178;BME280;35016;55.674;37.468;2023-06-10T07:03:50;99720.63;;;15.40;45.00
49178;BME280;35016;55.674;37.468;2023-06-10T07:06:17;99735.97;;;15.36;44.40
49178;BME280;35016;55.674;37.468;2023-06-10T07:08:44;99721.00;;;15.24;44.30
49178;BME280;35016;55.674;37.468;2023-06-10T07:11:11;99725.19;;;15.11;45.06
49178;BME280;35016;55.674;37.468;2023-06-10T07:13:38;99732.06;;;15.08;45.05
49178;BME280;35016;55.674;37.468;2023-06-10T07:16:05;99725.50;;;15.09;45.18
49178;BME280;35016;55.674;37.468;2023-06-10T07:18:32;99728.47;;;15.13;44.87
49178;BME280;35016;55.674;37.468;2023-06-10T07:20:59;99725.94;;;15.22;44.68
49178;BME280;35016;55.674;37.468;2023-06-10T07:23:26;99720.38;;;15.37;44.65
49178;BME280;35016;55.674;37.468;2023-06-10T07:25:53;99722.06;;;15.67;44.34
49178;BME280;35016;55.674;37.468;2023-06-10T07:28:20;99717.50;;;16.10;44.13
49178;BME280;35016;55.674;37.468;2023-06-10T07:30:47;99724.75;;;16.49;44.01
49178;BME280;35016;55.674;37.468;2023-06-10T07:33:14;99727.13;;;16.79;43.70
49178;BME280;35016;55.674;37.468;2023-06-10T07:35:40;99722.38;;;17.03;43.57
49178;BME280;35016;55.674;37.468;2023-06-10T07:38:09;99735.59;;;17.34;43.40
49178;BME280;35016;55.674;37.468;2023-06-10T07:40:36;99725.94;;;17.55;43.14
49178;BME280;35016;55.674;37.468;2023-06-10T07:43:03;99717.81;;;17.69;43.23
49178;BME280;35016;55.674;37.468;2023-06-10T07:45:30;99734.16;;;17.74;43.14
49178;BME280;35016;55.674;37.468;2023-06-10T07:47:57;99738.41;;;17.67;42.91
49178;BME280;35016;55.674;37.468;2023-06-10T07:50:24;99750.19;;;17.48;42.91
49178;BME280;35016;55.674;37.468;2023-06-10T07:52:51;99745.41;;;17.21;43.47
49178;BME280;35016;55.674;37.468;2023-06-10T07:55:18;99762.50;;;16.94;43.24
49178;BME280;35016;55.674;37.468;2023-06-10T07:57:45;99763.44;;;16.66;43.77
49178;BME280;35016;55.674;37.468;2023-06-10T08:00:12;99760.13;;;16.40;43.58
49178;BME280;35016;55.674;37.468;2023-06-10T08:02:39;99756.47;;;16.26;44.26
49178;BME280;35016;55.674;37.468;2023-06-10T08:05:07;99751.06;;;16.21;44.28
49178;BME280;35016;55.674;37.468;2023-06-10T08:07:34;99752.69;;;16.22;44.02
49178;BME280;35016;55.674;37.468;2023-06-10T08:10:01;99751.00;;;16.26;43.99
49178;BME280;35016;55.674;37.468;2023-06-10T08:12:29;99757.13;;;16.41;44.05
49178;BME280;35016;55.674;37.468;2023-06-10T08:14:56;99755.38;;;16.51;43.78
49178;BME280;35016;55.674;37.468;2023-06-10T08:17:23;99744.59;;;16.59;43.36
49178;BME280;35016;55.674;37.468;2023-06-10T08:19:50;99760.72;;;16.61;43.48
49178;BME280;35016;55.674;37.468;2023-06-10T08:22:17;99764.88;;;16.58;43.06
49178;BME280;35016;55.674;37.468;2023-06-10T08:24:45;99763.59;;;16.51;43.31
49178;BME280;35016;55.674;37.468;2023-06-10T08:27:14;99769.59;;;16.53;43.50
49178;BME280;35016;55.674;37.468;2023-06-10T08:29:41;99763.75;;;16.59;43.38
49178;BME280;35016;55.674;37.468;2023-06-10T08:32:08;99757.81;;;16.76;42.89
49178;BME280;35016;55.674;37.468;2023-06-10T08:34:36;99774.00;;;16.96;42.81
49178;BME280;35016;55.674;37.468;2023-06-10T08:37:03;99770.06;;;17.21;42.50
49178;BME280;35016;55.674;37.468;2023-06-10T08:39:30;99768.38;;;17.44;42.43
49178;BME280;35016;55.674;37.468;2023-06-10T08:44:38;99772.78;;;17.78;41.99
49178;BME280;35016;55.674;37.468;2023-06-10T08:47:08;99765.38;;;17.92;41.94
49178;BME280;35016;55.674;37.468;2023-06-10T08:49:38;99763.50;;;18.06;41.56
49178;BME280;35016;55.674;37.468;2023-06-10T08:52:08;99774.59;;;18.15;41.58
49178;BME280;35016;55.674;37.468;2023-06-10T08:54:37;99776.09;;;18.07;41.52
49178;BME280;35016;55.674;37.468;2023-06-10T08:57:05;99778.47;;;17.81;41.76
49178;BME280;35016;55.674;37.468;2023-06-10T08:59:32;99782.41;;;17.56;42.03
49178;BME280;35016;55.674;37.468;2023-06-10T09:02:00;99786.22;;;17.42;41.87
49178;BME280;35016;55.674;37.468;2023-06-10T09:04:27;99782.59;;;17.27;42.15
49178;BME280;35016;55.674;37.468;2023-06-10T09:06:55;99784.69;;;17.17;42.02
49178;BME280;35016;55.674;37.468;2023-06-10T09:09:23;99778.97;;;17.13;41.90
49178;BME280;35016;55.674;37.468;2023-06-10T09:11:50;99787.63;;;17.20;41.55
49178;BME280;35016;55.674;37.468;2023-06-10T09:14:16;99786.06;;;17.33;41.64
49178;BME280;35016;55.674;37.468;2023-06-10T09:16:43;99783.72;;;17.45;41.47
49178;BME280;35016;55.674;37.468;2023-06-10T09:19:13;99785.97;;;17.57;40.98
49178;BME280;35016;55.674;37.468;2023-06-10T09:21:41;99789.84;;;17.75;40.97
49178;BME280;35016;55.674;37.468;2023-06-10T09:24:08;99776.81;;;17.99;40.67
49178;BME280;35016;55.674;37.468;2023-06-10T09:26:35;99778.50;;;18.27;40.63
49178;BME280;35016;55.674;37.468;2023-06-10T09:29:04;99780.31;;;18.46;39.57
49178;BME280;35016;55.674;37.468;2023-06-10T09:31:34;99782.25;;;18.45;40.24
49178;BME280;35016;55.674;37.468;2023-06-10T09:34:20;99781.22;;;18.41;40.25
49178;BME280;35016;55.674;37.468;2023-06-10T09:36:47;99790.69;;;18.35;40.41
49178;BME280;35016;55.674;37.468;2023-06-10T09:39:14;99793.75;;;18.34;40.30
49178;BME280;35016;55.674;37.468;2023-06-10T09:41:42;99792.13;;;18.33;40.25
49178;BME280;35016;55.674;37.468;2023-06-10T09:44:14;99793.13;;;18.37;40.34
49178;BME280;35016;55.674;37.468;2023-06-10T09:46:41;99798.13;;;18.48;40.17
49178;BME280;35016;55.674;37.468;2023-06-10T09:49:08;99799.06;;;18.57;39.97
49178;BME280;35016;55.674;37.468;2023-06-10T09:51:35;99794.41;;;18.72;39.78
49178;BME280;35016;55.674;37.468;2023-06-10T09:54:03;99792.53;;;18.95;39.64
49178;BME280;35016;55.674;37.468;2023-06-10T09:56:36;99794.38;;;19.13;39.71
49178;BME280;35016;55.674;37.468;2023-06-10T09:59:03;99790.59;;;19.09;39.50
49178;BME280;35016;55.674;37.468;2023-06-10T10:01:32;99803.97;;;18.88;39.64
49178;BME280;35016;55.674;37.468;2023-06-10T10:04:00;99802.31;;;18.60;39.55
49178;BME280;35016;55.674;37.468;2023-06-10T10:06:27;99798.84;;;18.40;39.85
49178;BME280;35016;55.674;37.468;2023-06-10T10:08:56;99791.50;;;18.36;40.08
49178;BME280;35016;55.674;37.468;2023-06-10T10:11:23;99797.22;;;18.53;40.12
49178;BME280;35016;55.674;37.468;2023-06-10T10:13:50;99788.38;;;18.70;39.91
49178;BME280;35016;55.674;37.468;2023-06-10T10:16:22;99795.22;;;18.72;39.74
49178;BME280;35016;55.674;37.468;2023-06-10T10:18:55;99802.63;;;18.58;39.88
49178;BME280;35016;55.674;37.468;2023-06-10T10:21:23;99803.81;;;18.38;39.89
49178;BME280;35016;55.674;37.468;2023-06-10T10:24:01;99800.16;;;18.29;40.12
49178;BME280;35016;55.674;37.468;2023-06-10T10:26:29;99797.31;;;18.48;39.87
49178;BME280;35016;55.674;37.468;2023-06-10T10:31:28;99800.06;;;19.03;39.27
49178;BME280;35016;55.674;37.468;2023-06-10T10:34:00;99804.84;;;18.97;39.39
49178;BME280;35016;55.674;37.468;2023-06-10T10:36:29;99797.94;;;18.72;39.29
49178;BME280;35016;55.674;37.468;2023-06-10T10:38:56;99800.06;;;18.48;39.62
49178;BME280;35016;55.674;37.468;2023-06-10T10:41:25;99791.88;;;18.15;39.61
49178;BME280;35016;55.674;37.468;2023-06-10T10:43:53;99808.78;;;17.90;37.34
49178;BME280;35016;55.674;37.468;2023-06-10T10:46:20;99820.03;;;17.75;39.65
49178;BME280;35016;55.674;37.468;2023-06-10T10:48:51;99809.72;;;17.67;40.00
49178;BME280;35016;55.674;37.468;2023-06-10T10:51:19;99812.41;;;17.72;39.77
49178;BME280;35016;55.674;37.468;2023-06-10T10:54:09;99811.50;;;17.76;39.56
49178;BME280;35016;55.674;37.468;2023-06-10T10:56:32;99809.84;;;17.94;39.20
49178;BME280;35016;55.674;37.468;2023-06-10T10:59:05;99789.34;;;18.19;39.15
49178;BME280;35016;55.674;37.468;2023-06-10T11:01:39;99807.38;;;18.39;38.96
49178;BME280;35016;55.674;37.468;2023-06-10T11:04:10;99815.84;;;18.56;38.82
49178;BME280;35016;55.674;37.468;2023-06-10T11:06:37;99794.19;;;18.68;38.53
49178;BME280;35016;55.674;37.468;2023-06-10T11:09:26;99809.88;;;18.81;38.47
49178;BME280;35016;55.674;37.468;2023-06-10T11:11:58;99806.09;;;18.77;38.25
49178;BME280;35016;55.674;37.468;2023-06-10T11:14:29;99805.66;;;18.56;38.44
49178;BME280;35016;55.674;37.468;2023-06-10T11:16:56;99799.13;;;18.39;38.56
49178;BME280;35016;55.674;37.468;2023-06-10T11:19:34;99790.59;;;18.40;38.71
49178;BME280;35016;55.674;37.468;2023-06-10T11:22:15;99798.66;;;18.50;38.35
49178;BME280;35016;55.674;37.468;2023-06-10T11:24:46;99807.09;;;18.54;38.38
49178;BME280;35016;55.674;37.468;2023-06-10T11:27:14;99807.09;;;18.54;38.10
49178;BME280;35016;55.674;37.468;2023-06-10T11:29:55;99803.06;;;18.65;38.05
49178;BME280;35016;55.674;37.468;2023-06-10T11:32:32;99807.53;;;18.88;37.88
49178;BME280;35016;55.674;37.468;2023-06-10T11:35:02;99802.59;;;19.13;37.33
49178;BME280;35016;55.674;37.468;2023-06-10T11:37:30;99801.72;;;19.40;37.07
49178;BME280;35016;55.674;37.468;2023-06-10T11:39:57;99819.72;;;19.60;36.92
49178;BME280;35016;55.674;37.468;2023-06-10T11:42:25;99806.00;;;19.91;36.96
49178;BME280;35016;55.674;37.468;2023-06-10T11:44:53;99808.59;;;20.40;36.86
49178;BME280;35016;55.674;37.468;2023-06-10T11:47:20;99803.19;;;21.15;36.75
49178;BME280;35016;55.674;37.468;2023-06-10T11:49:55;99798.34;;;21.98;36.46
49178;BME280;35016;55.674;37.468;2023-06-10T11:52:26;99791.25;;;22.44;36.64
49178;BME280;35016;55.674;37.468;2023-06-10T11:54:56;99801.34;;;22.40;36.91
49178;BME280;35016;55.674;37.468;2023-06-10T11:57:23;99804.19;;;21.79;36.85
49178;BME280;35016;55.674;37.468;2023-06-10T11:59:50;99808.88;;;21.18;37.63
49178;BME280;35016;55.674;37.468;2023-06-10T12:02:17;99815.69;;;20.64;38.29
49178;BME280;35016;55.674;37.468;2023-06-10T12:04:46;99812.13;;;20.10;38.56
49178;BME280;35016;55.674;37.468;2023-06-10T12:07:17;99808.53;;;19.78;38.85
49178;BME280;35016;55.674;37.468;2023-06-10T12:09:45;99821.84;;;19.63;38.77
49178;BME280;35016;55.674;37.468;2023-06-10T12:12:12;99813.09;;;19.47;38.70
49178;BME280;35016;55.674;37.468;2023-06-10T12:14:58;99816.19;;;19.32;38.67
49178;BME280;35016;55.674;37.468;2023-06-10T12:20:00;99804.22;;;19.14;38.58
49178;BME280;35016;55.674;37.468;2023-06-10T12:22:36;99810.13;;;19.21;38.49
49178;BME280;35016;55.674;37.468;2023-06-10T12:25:03;99807.25;;;19.26;38.44
49178;BME280;35016;55.674;37.468;2023-06-10T12:27:31;99814.34;;;19.55;38.33
49178;BME280;35016;55.674;37.468;2023-06-10T12:29:59;99802.16;;;20.23;38.01
49178;BME280;35016;55.674;37.468;2023-06-10T12:32:42;99813.78;;;21.30;37.60
49178;BME280;35016;55.674;37.468;2023-06-10T12:35:10;99802.13;;;22.87;36.59
49178;BME280;35016;55.674;37.468;2023-06-10T12:37:42;99802.81;;;24.42;36.10
49178;BME280;35016;55.674;37.468;2023-06-10T12:40:09;99800.22;;;25.87;35.74
49178;BME280;35016;55.674;37.468;2023-06-10T12:42:37;99801.19;;;27.17;35.37
49178;BME280;35016;55.674;37.468;2023-06-10T12:45:05;99803.69;;;27.96;34.25
49178;BME280;35016;55.674;37.468;2023-06-10T12:47:35;99795.19;;;27.50;35.74
49178;BME280;35016;55.674;37.468;2023-06-10T12:50:05;99806.00;;;26.53;35.49
49178;BME280;35016;55.674;37.468;2023-06-10T12:52:32;99799.25;;;25.67;37.32
49178;BME280;35016;55.674;37.468;2023-06-10T12:54:59;99796.03;;;25.53;37.16
49178;BME280;35016;55.674;37.468;2023-06-10T12:57:29;99805.41;;;26.16;36.34
49178;BME280;35016;55.674;37.468;2023-06-10T12:59:56;99810.78;;;26.25;35.85
49178;BME280;35016;55.674;37.468;2023-06-10T13:02:32;99806.91;;;26.42;35.97
49178;BME280;35016;55.674;37.468;2023-06-10T13:04:59;99799.88;;;26.95;35.73
49178;BME280;35016;55.674;37.468;2023-06-10T13:07:26;99814.88;;;27.41;35.16
49178;BME280;35016;55.674;37.468;2023-06-10T13:09:53;99805.47;;;27.65;34.72